createdAt,value
2019-02-05T00:00:14.331Z,1018.74
2019-02-05T00:01:14.336Z,1018.73
2019-02-05T00:02:14.344Z,1018.72
2019-02-05T00:03:14.347Z,1018.76
2019-02-05T00:04:14.352Z,1018.70
2019-02-05T00:05:14.361Z,1018.71
2019-02-05T00:06:14.369Z,1018.69
2019-02-05T00:07:14.438Z,1018.72
2019-02-05T00:08:14.375Z,1018.69
2019-02-05T00:09:14.381Z,1018.68
2019-02-05T00:10:14.386Z,1018.67
2019-02-05T00:11:14.391Z,1018.68
2019-02-05T00:12:14.409Z,1018.61
2019-02-05T00:13:14.402Z,1018.63
2019-02-05T00:14:14.407Z,1018.63
2019-02-05T00:15:14.414Z,1018.63
2019-02-05T00:16:14.421Z,1018.64
2019-02-05T00:17:14.427Z,1018.63
2019-02-05T00:18:14.429Z,1018.59
2019-02-05T00:19:14.435Z,1018.54
2019-02-05T00:20:14.441Z,1018.55
2019-02-05T00:21:14.447Z,1018.53
2019-02-05T00:22:14.453Z,1018.55
2019-02-05T00:23:14.456Z,1018.53
2019-02-05T00:24:14.462Z,1018.54
2019-02-05T00:25:14.469Z,1018.57
2019-02-05T00:26:14.476Z,1018.47
2019-02-05T00:27:14.478Z,1018.49
2019-02-05T00:28:14.485Z,1018.44
2019-02-05T00:29:14.491Z,1018.44
2019-02-05T00:30:14.500Z,1018.47
2019-02-05T00:31:14.502Z,1018.45
2019-02-05T00:32:14.506Z,1018.46
2019-02-05T00:33:14.514Z,1018.44
2019-02-05T00:34:14.517Z,1018.47
2019-02-05T00:35:14.523Z,1018.44
2019-02-05T00:36:14.528Z,1018.43
2019-02-05T00:37:14.535Z,1018.47
2019-02-05T00:38:14.540Z,1018.46
2019-02-05T00:39:14.546Z,1018.40
2019-02-05T00:40:14.550Z,1018.40
2019-02-05T00:41:14.558Z,1018.39
2019-02-05T00:42:14.566Z,1018.43
2019-02-05T00:43:14.566Z,1018.34
2019-02-05T00:44:14.573Z,1018.44
2019-02-05T00:45:14.579Z,1018.37
2019-02-05T00:46:14.585Z,1018.34
2019-02-05T00:47:14.590Z,1018.39
2019-02-05T00:48:14.596Z,1018.33
2019-02-05T00:49:14.601Z,1018.34
2019-02-05T00:50:14.607Z,1018.39
2019-02-05T00:51:14.612Z,1018.39
2019-02-05T00:52:14.622Z,1018.38
2019-02-05T00:53:14.624Z,1018.36
2019-02-05T00:54:14.629Z,1018.43
2019-02-05T00:55:14.639Z,1018.41
2019-02-05T00:56:17.770Z,1018.37
2019-02-05T00:57:14.644Z,1018.39
2019-02-05T00:58:14.652Z,1018.35
2019-02-05T00:59:14.656Z,1018.35
2019-02-05T01:00:14.663Z,1018.39
2019-02-05T01:01:15.523Z,1018.37
2019-02-05T01:02:14.675Z,1018.35
2019-02-05T01:03:14.678Z,1018.31
2019-02-05T01:04:14.684Z,1018.29
2019-02-05T01:05:14.689Z,1018.32
2019-02-05T01:06:14.694Z,1018.27
2019-02-05T01:07:14.701Z,1018.27
2019-02-05T01:08:14.709Z,1018.25
2019-02-05T01:09:14.711Z,1018.25
2019-02-05T01:10:14.717Z,1018.24
2019-02-05T01:11:14.726Z,1018.22
2019-02-05T01:12:14.728Z,1018.25
2019-02-05T01:13:14.733Z,1018.30
2019-02-05T01:14:14.740Z,1018.21
2019-02-05T01:15:14.744Z,1018.23
2019-02-05T01:16:14.753Z,1018.28
2019-02-05T01:17:14.756Z,1018.25
2019-02-05T01:18:14.761Z,1018.27
2019-02-05T01:19:14.766Z,1018.22
2019-02-05T01:20:14.776Z,1018.23
2019-02-05T01:21:14.779Z,1018.21
2019-02-05T01:22:14.814Z,1018.23
2019-02-05T01:23:14.789Z,1018.25
2019-02-05T01:24:14.795Z,1018.27
2019-02-05T01:25:14.801Z,1018.22
2019-02-05T01:26:14.806Z,1018.20
2019-02-05T01:27:14.810Z,1018.23
2019-02-05T01:28:14.815Z,1018.18
2019-02-05T01:29:14.821Z,1018.20
2019-02-05T01:30:14.828Z,1018.22
2019-02-05T01:31:14.833Z,1018.14
2019-02-05T01:32:14.838Z,1018.10
2019-02-05T01:33:14.844Z,1018.14
2019-02-05T01:34:14.851Z,1018.13
2019-02-05T01:35:14.853Z,1018.14
2019-02-05T01:36:14.873Z,1018.11
2019-02-05T01:37:14.865Z,1018.11
2019-02-05T01:38:14.872Z,1018.14
2019-02-05T01:39:14.875Z,1018.12
2019-02-05T01:40:14.886Z,1018.07
2019-02-05T01:41:14.888Z,1018.09
2019-02-05T01:42:14.895Z,1018.07
2019-02-05T01:43:14.899Z,1018.04
2019-02-05T01:44:14.904Z,1018.02
2019-02-05T01:45:14.911Z,1018.00
2019-02-05T01:46:14.916Z,1017.97
2019-02-05T01:47:14.921Z,1018.04
2019-02-05T01:48:14.931Z,1017.99
2019-02-05T01:49:14.937Z,1017.97
2019-02-05T01:50:14.944Z,1017.89
2019-02-05T01:51:14.946Z,1017.92
2019-02-05T01:52:14.947Z,1017.88
2019-02-05T01:53:14.954Z,1017.89
2019-02-05T01:54:14.963Z,1017.90
2019-02-05T01:55:14.965Z,1017.86
2019-02-05T01:56:15.000Z,1017.84
2019-02-05T01:57:14.976Z,1017.86
2019-02-05T01:58:14.981Z,1017.88
2019-02-05T01:59:14.987Z,1017.84
2019-02-05T02:00:14.994Z,1017.89
2019-02-05T02:01:15.001Z,1017.86
2019-02-05T02:02:15.004Z,1017.80
2019-02-05T02:03:15.009Z,1017.84
2019-02-05T02:04:15.014Z,1017.83
2019-02-05T02:05:15.020Z,1017.83
2019-02-05T02:06:15.029Z,1017.80
2019-02-05T02:07:15.031Z,1017.81
2019-02-05T02:08:15.039Z,1017.80
2019-02-05T02:09:15.103Z,1017.78
2019-02-05T02:10:15.048Z,1017.80
2019-02-05T02:11:15.051Z,1017.80
2019-02-05T02:12:15.059Z,1017.78
2019-02-05T02:13:15.064Z,1017.78
2019-02-05T02:14:15.069Z,1017.76
2019-02-05T02:15:15.074Z,1017.70
2019-02-05T02:16:15.080Z,1017.62
2019-02-05T02:17:15.090Z,1017.61
2019-02-05T02:18:15.091Z,1017.68
2019-02-05T02:19:15.099Z,1017.59
2019-02-05T02:20:15.102Z,1017.61
2019-02-05T02:21:15.108Z,1017.58
2019-02-05T02:22:15.112Z,1017.56
2019-02-05T02:23:15.118Z,1017.53
2019-02-05T02:24:15.124Z,1017.55
2019-02-05T02:25:15.128Z,1017.53
2019-02-05T02:26:15.135Z,1017.51
2019-02-05T02:27:15.140Z,1017.47
2019-02-05T02:28:15.146Z,1017.46
2019-02-05T02:29:15.151Z,1017.58
2019-02-05T02:30:15.165Z,1017.48
2019-02-05T02:31:15.164Z,1017.47
2019-02-05T02:32:15.170Z,1017.43
2019-02-05T02:33:15.174Z,1017.42
2019-02-05T02:34:15.179Z,1017.45
2019-02-05T02:35:15.191Z,1017.41
2019-02-05T02:36:15.189Z,1017.38
2019-02-05T02:37:15.194Z,1017.40
2019-02-05T02:38:15.206Z,1017.38
2019-02-05T02:39:15.207Z,1017.36
2019-02-05T02:40:15.215Z,1017.33
2019-02-05T02:41:15.217Z,1017.33
2019-02-05T02:42:15.222Z,1017.37
2019-02-05T02:43:15.230Z,1017.33
2019-02-05T02:44:15.233Z,1017.25
2019-02-05T02:45:15.239Z,1017.27
2019-02-05T02:46:15.246Z,1017.24
2019-02-05T02:47:15.249Z,1017.23
2019-02-05T02:48:15.258Z,1017.16
2019-02-05T02:49:15.262Z,1017.18
2019-02-05T02:50:15.265Z,1017.22
2019-02-05T02:51:15.270Z,1017.18
2019-02-05T02:52:15.277Z,1017.18
2019-02-05T02:53:15.283Z,1017.14
2019-02-05T02:54:15.288Z,1017.05
2019-02-05T02:55:15.294Z,1017.11
2019-02-05T02:56:15.298Z,1017.15
2019-02-05T02:57:15.306Z,1017.16
2019-02-05T02:58:15.320Z,1017.17
2019-02-05T02:59:15.314Z,1017.13
2019-02-05T03:00:15.320Z,1017.12
2019-02-05T03:01:15.447Z,1017.16
2019-02-05T03:02:15.332Z,1017.13
2019-02-05T03:03:15.336Z,1017.15
2019-02-05T03:04:15.344Z,1017.11
2019-02-05T03:05:15.352Z,1017.11
2019-02-05T03:06:15.353Z,1017.09
2019-02-05T03:07:15.358Z,1017.05
2019-02-05T03:08:15.365Z,1017.08
2019-02-05T03:09:15.370Z,1017.06
2019-02-05T03:10:15.375Z,1017.02
2019-02-05T03:11:15.379Z,1017.02
2019-02-05T03:12:15.385Z,1016.94
2019-02-05T03:13:15.392Z,1017.02
2019-02-05T03:14:15.401Z,1016.99
2019-02-05T03:15:15.401Z,1017.00
2019-02-05T03:16:15.656Z,1016.96
2019-02-05T03:17:15.412Z,1016.96
2019-02-05T03:18:15.419Z,1016.98
2019-02-05T03:19:15.424Z,1016.91
2019-02-05T03:20:15.432Z,1016.90
2019-02-05T03:21:15.435Z,1016.86
2019-02-05T03:22:15.442Z,1016.89
2019-02-05T03:23:15.443Z,1016.85
2019-02-05T03:24:15.450Z,1016.84
2019-02-05T03:25:15.456Z,1016.86
2019-02-05T03:26:15.462Z,1016.90
2019-02-05T03:27:17.922Z,1016.80
2019-02-05T03:28:15.475Z,1016.77
2019-02-05T03:29:15.479Z,1016.85
2019-02-05T03:30:15.485Z,1016.80
2019-02-05T03:31:15.492Z,1016.79
2019-02-05T03:32:15.494Z,1016.83
2019-02-05T03:33:15.501Z,1016.79
2019-02-05T03:34:15.505Z,1016.76
2019-02-05T03:35:15.509Z,1016.68
2019-02-05T03:36:15.516Z,1016.74
2019-02-05T03:37:15.521Z,1016.71
2019-02-05T03:38:15.527Z,1016.67
2019-02-05T03:39:15.530Z,1016.76
2019-02-05T03:40:15.537Z,1016.68
2019-02-05T03:41:15.542Z,1016.66
2019-02-05T03:42:15.548Z,1016.67
2019-02-05T03:43:15.554Z,1016.70
2019-02-05T03:44:15.558Z,1016.71
2019-02-05T03:45:15.564Z,1016.59
2019-02-05T03:46:15.576Z,1016.61
2019-02-05T03:47:15.575Z,1016.59
2019-02-05T03:48:15.579Z,1016.64
2019-02-05T03:49:15.585Z,1016.62
2019-02-05T03:50:15.591Z,1016.66
2019-02-05T03:51:15.910Z,1016.55
2019-02-05T03:52:15.600Z,1016.55
2019-02-05T03:53:15.605Z,1016.59
2019-02-05T03:54:15.616Z,1016.58
2019-02-05T03:55:15.617Z,1016.54
2019-02-05T03:56:15.625Z,1016.56
2019-02-05T03:57:15.628Z,1016.53
2019-02-05T03:58:15.633Z,1016.55
2019-02-05T03:59:15.640Z,1016.54
2019-02-05T04:00:15.682Z,1016.51
2019-02-05T04:01:15.650Z,1016.50
2019-02-05T04:02:15.662Z,1016.49
2019-02-05T04:03:15.674Z,1016.47
2019-02-05T04:04:15.666Z,1016.51
2019-02-05T04:05:15.671Z,1016.50
2019-02-05T04:06:15.678Z,1016.48
2019-02-05T04:07:15.683Z,1016.44
2019-02-05T04:08:15.687Z,1016.46
2019-02-05T04:09:15.693Z,1016.45
2019-02-05T04:10:15.700Z,1016.42
2019-02-05T04:11:15.953Z,1016.38
2019-02-05T04:12:15.710Z,1016.41
2019-02-05T04:13:15.715Z,1016.40
2019-02-05T04:14:15.720Z,1016.36
2019-02-05T04:15:15.725Z,1016.31
2019-02-05T04:16:15.735Z,1016.30
2019-02-05T04:17:15.737Z,1016.37
2019-02-05T04:18:15.744Z,1016.34
2019-02-05T04:19:15.747Z,1016.37
2019-02-05T04:20:15.774Z,1016.34
2019-02-05T04:21:15.760Z,1016.39
2019-02-05T04:22:15.763Z,1016.34
2019-02-05T04:23:15.768Z,1016.34
2019-02-05T04:24:15.773Z,1016.34
2019-02-05T04:25:15.778Z,1016.31
2019-02-05T04:26:15.785Z,1016.35
2019-02-05T04:27:15.791Z,1016.29
2019-02-05T04:28:15.806Z,1016.34
2019-02-05T04:29:15.800Z,1016.28
2019-02-05T04:30:15.809Z,1016.26
2019-02-05T04:31:15.811Z,1016.30
2019-02-05T04:32:15.820Z,1016.26
2019-02-05T04:33:15.823Z,1016.32
2019-02-05T04:34:15.827Z,1016.27
2019-02-05T04:35:15.831Z,1016.22
2019-02-05T04:36:15.838Z,1016.28
2019-02-05T04:37:15.843Z,1016.30
2019-02-05T04:38:15.850Z,1016.27
2019-02-05T04:39:15.853Z,1016.28
2019-02-05T04:40:15.858Z,1016.25
2019-02-05T04:41:15.865Z,1016.29
2019-02-05T04:42:15.871Z,1016.24
2019-02-05T04:43:15.882Z,1016.24
2019-02-05T04:44:15.882Z,1016.25
2019-02-05T04:45:15.887Z,1016.23
2019-02-05T04:46:15.892Z,1016.18
2019-02-05T04:47:15.897Z,1016.19
2019-02-05T04:48:15.902Z,1016.17
2019-02-05T04:49:15.910Z,1016.16
2019-02-05T04:50:15.922Z,1016.16
2019-02-05T04:51:15.918Z,1016.14
2019-02-05T04:52:15.926Z,1016.20
2019-02-05T04:53:15.930Z,1016.12
2019-02-05T04:54:15.935Z,1016.18
2019-02-05T04:55:15.938Z,1016.17
2019-02-05T04:56:15.946Z,1016.14
2019-02-05T04:57:15.949Z,1016.10
2019-02-05T04:58:15.958Z,1016.12
2019-02-05T04:59:15.960Z,1016.11
2019-02-05T05:00:15.967Z,1016.14
2019-02-05T05:01:15.972Z,1016.16
2019-02-05T05:02:15.977Z,1016.09
2019-02-05T05:03:15.981Z,1016.12
2019-02-05T05:04:15.988Z,1016.11
2019-02-05T05:05:15.994Z,1016.12
2019-02-05T05:06:16.000Z,1016.09
2019-02-05T05:07:16.254Z,1016.11
2019-02-05T05:08:16.012Z,1016.11
2019-02-05T05:09:16.018Z,1016.06
2019-02-05T05:10:16.025Z,1016.04
2019-02-05T05:11:16.029Z,1016.00
2019-02-05T05:12:16.032Z,1016.02
2019-02-05T05:13:16.036Z,1016.03
2019-02-05T05:14:16.043Z,1016.06
2019-02-05T05:15:16.052Z,1015.93
2019-02-05T05:16:16.053Z,1016.01
2019-02-05T05:17:16.058Z,1015.95
2019-02-05T05:18:16.064Z,1015.98
2019-02-05T05:19:16.069Z,1016.02
2019-02-05T05:20:16.076Z,1015.95
2019-02-05T05:21:16.081Z,1015.97
2019-02-05T05:22:16.087Z,1015.99
2019-02-05T05:23:16.091Z,1015.96
2019-02-05T05:24:16.096Z,1015.93
2019-02-05T05:25:16.102Z,1015.99
2019-02-05T05:26:16.106Z,1016.00
2019-02-05T05:27:16.116Z,1015.95
2019-02-05T05:28:16.118Z,1016.00
2019-02-05T05:29:16.124Z,1015.88
2019-02-05T05:30:16.129Z,1015.93
2019-02-05T05:31:16.200Z,1015.97
2019-02-05T05:32:16.139Z,1015.91
2019-02-05T05:33:16.145Z,1015.89
2019-02-05T05:34:16.150Z,1015.91
2019-02-05T05:35:16.158Z,1015.89
2019-02-05T05:36:16.161Z,1015.89
2019-02-05T05:37:16.169Z,1015.90
2019-02-05T05:38:16.173Z,1015.93
2019-02-05T05:39:16.181Z,1015.90
2019-02-05T05:40:16.183Z,1015.87
2019-02-05T05:41:16.190Z,1015.91
2019-02-05T05:42:16.193Z,1015.91
2019-02-05T05:43:16.199Z,1015.85
2019-02-05T05:44:16.205Z,1015.90
2019-02-05T05:45:16.210Z,1015.87
2019-02-05T05:46:16.218Z,1015.81
2019-02-05T05:47:16.222Z,1015.86
2019-02-05T05:48:16.226Z,1015.85
2019-02-05T05:49:16.239Z,1015.88
2019-02-05T05:50:16.237Z,1015.92
2019-02-05T05:51:16.247Z,1015.86
2019-02-05T05:52:16.248Z,1015.91
2019-02-05T05:53:16.254Z,1015.89
2019-02-05T05:54:16.259Z,1015.92
2019-02-05T05:55:16.265Z,1015.95
2019-02-05T05:56:16.270Z,1015.97
2019-02-05T05:57:18.719Z,1015.88
2019-02-05T05:58:23.032Z,1015.84
2019-02-05T05:59:16.287Z,1015.90
2019-02-05T06:00:16.290Z,1015.89
2019-02-05T06:01:16.297Z,1015.88
2019-02-05T06:02:16.552Z,1015.91
2019-02-05T06:03:16.310Z,1015.89
2019-02-05T06:04:16.313Z,1015.91
2019-02-05T06:05:16.319Z,1015.90
2019-02-05T06:06:16.325Z,1015.87
2019-02-05T06:07:16.392Z,1015.84
2019-02-05T06:08:16.335Z,1015.85
2019-02-05T06:09:16.344Z,1015.85
2019-02-05T06:10:16.346Z,1015.85
2019-02-05T06:11:16.352Z,1015.82
2019-02-05T06:12:16.357Z,1015.86
2019-02-05T06:13:16.371Z,1015.86
2019-02-05T06:14:16.368Z,1015.81
2019-02-05T06:15:16.373Z,1015.80
2019-02-05T06:16:16.378Z,1015.86
2019-02-05T06:17:16.383Z,1015.90
2019-02-05T06:18:16.390Z,1015.88
2019-02-05T06:19:16.398Z,1015.87
2019-02-05T06:20:16.400Z,1015.83
2019-02-05T06:21:16.407Z,1015.88
2019-02-05T06:22:16.411Z,1015.77
2019-02-05T06:23:16.417Z,1015.89
2019-02-05T06:24:16.425Z,1015.89
2019-02-05T06:25:16.799Z,1015.91
2019-02-05T06:26:16.436Z,1015.94
2019-02-05T06:27:16.439Z,1015.90
2019-02-05T06:28:16.445Z,1015.81
2019-02-05T06:29:16.450Z,1015.89
2019-02-05T06:30:16.455Z,1015.89
2019-02-05T06:31:16.461Z,1015.87
2019-02-05T06:32:16.467Z,1015.86
2019-02-05T06:33:16.474Z,1015.86
2019-02-05T06:34:16.479Z,1015.86
2019-02-05T06:35:16.483Z,1015.81
2019-02-05T06:36:16.490Z,1015.85
2019-02-05T06:37:16.498Z,1015.86
2019-02-05T06:38:16.498Z,1015.84
2019-02-05T06:39:16.622Z,1015.86
2019-02-05T06:40:16.547Z,1015.89
2019-02-05T06:41:16.519Z,1015.85
2019-02-05T06:42:16.822Z,1015.87
2019-02-05T06:43:16.527Z,1015.81
2019-02-05T06:44:16.533Z,1015.83
2019-02-05T06:45:16.539Z,1015.79
2019-02-05T06:46:16.542Z,1015.82
2019-02-05T06:47:16.550Z,1015.86
2019-02-05T06:48:16.704Z,1015.89
2019-02-05T06:49:16.560Z,1015.89
2019-02-05T06:50:16.564Z,1015.91
2019-02-05T06:51:16.568Z,1016.01
2019-02-05T06:52:16.576Z,1015.90
2019-02-05T06:53:16.584Z,1015.94
2019-02-05T06:54:16.586Z,1015.87
2019-02-05T06:55:16.592Z,1015.93
2019-02-05T06:56:16.598Z,1015.89
2019-02-05T06:57:16.603Z,1015.86
2019-02-05T06:58:16.612Z,1015.85
2019-02-05T06:59:16.618Z,1015.86
2019-02-05T07:00:16.618Z,1015.98
2019-02-05T07:01:16.625Z,1015.93
2019-02-05T07:02:16.630Z,1015.88
2019-02-05T07:03:16.636Z,1015.87
2019-02-05T07:04:16.641Z,1015.86
2019-02-05T07:05:16.800Z,1015.79
2019-02-05T07:06:16.657Z,1015.94
2019-02-05T07:07:16.662Z,1015.94
2019-02-05T07:08:16.662Z,1015.85
2019-02-05T07:09:16.669Z,1015.94
2019-02-05T07:10:16.673Z,1015.89
2019-02-05T07:11:16.678Z,1015.91
2019-02-05T07:12:16.684Z,1015.89
2019-02-05T07:13:16.991Z,1015.88
2019-02-05T07:14:16.696Z,1015.96
2019-02-05T07:15:16.713Z,1015.88
2019-02-05T07:16:16.705Z,1015.87
2019-02-05T07:17:16.712Z,1015.84
2019-02-05T07:18:16.968Z,1015.97
2019-02-05T07:19:16.723Z,1015.92
2019-02-05T07:20:16.727Z,1015.92
2019-02-05T07:21:16.735Z,1015.95
2019-02-05T07:22:16.739Z,1016.03
2019-02-05T07:23:17.043Z,1015.96
2019-02-05T07:24:16.750Z,1015.99
2019-02-05T07:25:16.754Z,1015.99
2019-02-05T07:26:16.760Z,1015.96
2019-02-05T07:27:16.765Z,1015.99
2019-02-05T07:28:16.771Z,1015.97
2019-02-05T07:29:16.778Z,1015.97
2019-02-05T07:30:16.783Z,1015.99
2019-02-05T07:31:16.788Z,1015.98
2019-02-05T07:32:16.793Z,1016.00
2019-02-05T07:33:16.895Z,1016.01
2019-02-05T07:34:16.805Z,1016.04
2019-02-05T07:35:16.809Z,1016.01
2019-02-05T07:36:16.815Z,1016.03
2019-02-05T07:37:16.821Z,1015.99
2019-02-05T07:38:16.832Z,1016.05
2019-02-05T07:39:16.832Z,1016.04
2019-02-05T07:40:16.838Z,1016.05
2019-02-05T07:41:16.843Z,1016.03
2019-02-05T07:42:16.848Z,1016.00
2019-02-05T07:43:16.857Z,1015.98
2019-02-05T07:44:16.975Z,1016.01
2019-02-05T07:45:16.864Z,1015.98
2019-02-05T07:46:16.871Z,1016.00
2019-02-05T07:47:16.876Z,1016.03
2019-02-05T07:48:16.881Z,1016.02
2019-02-05T07:49:16.888Z,1016.03
2019-02-05T07:50:16.892Z,1015.97
2019-02-05T07:51:16.897Z,1015.95
2019-02-05T07:52:16.903Z,1016.01
2019-02-05T07:53:16.909Z,1016.01
2019-02-05T07:54:16.978Z,1015.99
2019-02-05T07:55:16.919Z,1015.99
2019-02-05T07:56:16.930Z,1016.00
2019-02-05T07:57:16.930Z,1016.03
2019-02-05T07:58:16.936Z,1015.99
2019-02-05T07:59:16.940Z,1015.94
2019-02-05T08:00:16.947Z,1016.00
2019-02-05T08:01:17.672Z,1016.09
2019-02-05T08:02:16.958Z,1016.10
2019-02-05T08:03:16.963Z,1015.96
2019-02-05T08:04:16.968Z,1015.99
2019-02-05T08:05:16.974Z,1015.97
2019-02-05T08:06:16.982Z,1016.05
2019-02-05T08:07:16.983Z,1015.95
2019-02-05T08:08:16.990Z,1015.91
2019-02-05T08:09:16.996Z,1016.10
2019-02-05T08:10:17.005Z,1015.90
2019-02-05T08:11:17.006Z,1016.03
2019-02-05T08:12:17.012Z,1015.92
2019-02-05T08:13:17.018Z,1015.97
2019-02-05T08:14:17.023Z,1016.01
2019-02-05T08:15:17.028Z,1015.96
2019-02-05T08:16:17.035Z,1015.97
2019-02-05T08:17:17.041Z,1015.85
2019-02-05T08:18:17.046Z,1015.91
2019-02-05T08:19:17.050Z,1015.97
2019-02-05T08:20:17.056Z,1015.95
2019-02-05T08:21:17.062Z,1015.98
2019-02-05T08:22:17.067Z,1015.94
2019-02-05T08:23:17.072Z,1016.01
2019-02-05T08:24:17.079Z,1016.05
2019-02-05T08:25:17.179Z,1015.97
2019-02-05T08:26:17.090Z,1015.96
2019-02-05T08:27:17.094Z,1015.89
2019-02-05T08:28:17.101Z,1015.96
2019-02-05T08:29:21.807Z,1015.95
2019-02-05T08:30:17.112Z,1015.92
2019-02-05T08:31:17.116Z,1015.87
2019-02-05T08:32:17.122Z,1015.89
2019-02-05T08:33:17.127Z,1015.91
2019-02-05T08:34:17.133Z,1015.90
2019-02-05T08:35:17.139Z,1015.95
2019-02-05T08:36:17.143Z,1015.90
2019-02-05T08:37:17.150Z,1015.88
2019-02-05T08:38:17.155Z,1015.88
2019-02-05T08:39:17.960Z,1015.94
2019-02-05T08:40:17.166Z,1015.82
2019-02-05T08:41:17.171Z,1015.91
2019-02-05T08:42:17.177Z,1015.90
2019-02-05T08:43:17.285Z,1015.88
2019-02-05T08:44:17.187Z,1015.88
2019-02-05T08:45:17.193Z,1015.88
2019-02-05T08:46:17.198Z,1015.90
2019-02-05T08:47:17.203Z,1015.86
2019-02-05T08:48:17.207Z,1016.01
2019-02-05T08:49:17.215Z,1015.92
2019-02-05T08:50:17.219Z,1015.95
2019-02-05T08:51:17.225Z,1015.89
2019-02-05T08:52:17.231Z,1015.90
2019-02-05T08:53:17.236Z,1015.83
2019-02-05T08:54:17.241Z,1015.86
2019-02-05T08:55:17.247Z,1015.89
2019-02-05T08:56:17.254Z,1015.94
2019-02-05T08:57:17.258Z,1015.96
2019-02-05T08:58:17.265Z,1015.96
2019-02-05T08:59:17.269Z,1015.90
2019-02-05T09:00:17.275Z,1015.98
2019-02-05T09:01:17.281Z,1015.91
2019-02-05T09:02:17.287Z,1015.93
2019-02-05T09:03:17.291Z,1015.98
2019-02-05T09:04:17.296Z,1015.93
2019-02-05T09:05:17.303Z,1015.92
2019-02-05T09:06:17.308Z,1015.99
2019-02-05T09:07:17.311Z,1015.93
2019-02-05T09:08:17.319Z,1015.95
2019-02-05T09:09:17.325Z,1015.98
2019-02-05T09:10:17.330Z,1015.91
2019-02-05T09:11:17.335Z,1015.90
2019-02-05T09:12:18.022Z,1015.90
2019-02-05T09:13:17.346Z,1015.89
2019-02-05T09:14:17.351Z,1015.91
2019-02-05T09:15:28.872Z,1015.85
2019-02-05T09:16:17.362Z,1015.93
2019-02-05T09:17:17.368Z,1015.92
2019-02-05T09:18:17.373Z,1015.89
2019-02-05T09:19:17.378Z,1015.83
2019-02-05T09:20:17.384Z,1015.87
2019-02-05T09:21:17.389Z,1015.86
2019-02-05T09:22:17.394Z,1015.89
2019-02-05T09:23:17.400Z,1015.91
2019-02-05T09:24:17.406Z,1015.86
2019-02-05T09:25:17.413Z,1015.89
2019-02-05T09:26:17.418Z,1015.87
2019-02-05T09:27:17.423Z,1015.86
2019-02-05T09:28:17.427Z,1015.84
2019-02-05T09:29:17.434Z,1015.89
2019-02-05T09:30:17.439Z,1015.93
2019-02-05T09:31:17.444Z,1015.83
2019-02-05T09:32:17.451Z,1015.93
2019-02-05T09:33:17.455Z,1015.87
2019-02-05T09:34:17.460Z,1015.99
2019-02-05T09:35:17.465Z,1015.98
2019-02-05T09:36:17.472Z,1015.96
2019-02-05T09:37:17.477Z,1015.89
2019-02-05T09:38:17.483Z,1015.87
2019-02-05T09:39:17.489Z,1015.96
2019-02-05T09:40:17.493Z,1015.89
2019-02-05T09:41:17.499Z,1015.90
2019-02-05T09:42:17.505Z,1015.89
2019-02-05T09:43:17.509Z,1015.96
2019-02-05T09:44:17.514Z,1015.95
2019-02-05T09:45:17.595Z,1015.86
2019-02-05T09:46:17.595Z,1015.92
2019-02-05T09:47:17.531Z,1015.94
2019-02-05T09:48:17.536Z,1015.94
2019-02-05T09:49:17.542Z,1015.94
2019-02-05T09:50:17.547Z,1015.99
2019-02-05T09:51:17.553Z,1015.85
2019-02-05T09:52:17.664Z,1015.93
2019-02-05T09:53:17.565Z,1015.95
2019-02-05T09:54:17.569Z,1015.92
2019-02-05T09:55:17.576Z,1015.90
2019-02-05T09:56:17.593Z,1015.99
2019-02-05T09:57:17.586Z,1015.94
2019-02-05T09:58:17.650Z,1015.95
2019-02-05T09:59:17.597Z,1015.97
2019-02-05T10:00:17.602Z,1015.94
2019-02-05T10:01:17.610Z,1015.85
2019-02-05T10:02:17.613Z,1015.94
2019-02-05T10:03:17.619Z,1015.91
2019-02-05T10:04:17.624Z,1015.92
2019-02-05T10:05:17.630Z,1015.96
2019-02-05T10:06:17.638Z,1015.99
2019-02-05T10:07:17.640Z,1016.00
2019-02-05T10:08:17.647Z,1015.97
2019-02-05T10:09:17.651Z,1016.02
2019-02-05T10:10:17.659Z,1015.99
2019-02-05T10:11:17.764Z,1016.04
2019-02-05T10:12:17.668Z,1016.03
2019-02-05T10:13:17.674Z,1016.05
2019-02-05T10:14:17.683Z,1016.08
2019-02-05T10:15:17.685Z,1016.04
2019-02-05T10:16:17.767Z,1016.01
2019-02-05T10:17:17.758Z,1016.02
2019-02-05T10:18:17.702Z,1015.97
2019-02-05T10:19:17.706Z,1016.03
2019-02-05T10:20:17.713Z,1015.95
2019-02-05T10:21:17.720Z,1016.00
2019-02-05T10:22:17.724Z,1016.01
2019-02-05T10:23:17.730Z,1016.05
2019-02-05T10:24:17.735Z,1015.96
2019-02-05T10:25:17.740Z,1016.03
2019-02-05T10:26:17.746Z,1016.00
2019-02-05T10:27:17.751Z,1016.02
2019-02-05T10:28:17.756Z,1016.08
2019-02-05T10:29:17.762Z,1016.05
2019-02-05T10:30:17.768Z,1016.05
2019-02-05T10:31:17.772Z,1016.01
2019-02-05T10:32:17.779Z,1016.05
2019-02-05T10:33:17.785Z,1016.02
2019-02-05T10:34:17.790Z,1016.03
2019-02-05T10:35:17.801Z,1016.01
2019-02-05T10:36:17.802Z,1016.01
2019-02-05T10:37:17.808Z,1016.01
2019-02-05T10:38:17.812Z,1016.01
2019-02-05T10:39:17.818Z,1016.05
2019-02-05T10:40:17.821Z,1016.04
2019-02-05T10:41:17.948Z,1016.13
2019-02-05T10:42:17.833Z,1016.01
2019-02-05T10:43:17.840Z,1016.00
2019-02-05T10:44:17.844Z,1016.05
2019-02-05T10:45:17.851Z,1015.95
2019-02-05T10:46:17.857Z,1015.97
2019-02-05T10:47:17.861Z,1016.03
2019-02-05T10:48:17.868Z,1016.00
2019-02-05T10:49:17.873Z,1015.94
2019-02-05T10:50:17.879Z,1015.96
2019-02-05T10:51:17.885Z,1015.99
2019-02-05T10:52:17.889Z,1015.98
2019-02-05T10:53:17.896Z,1016.02
2019-02-05T10:54:17.901Z,1015.95
2019-02-05T10:55:17.906Z,1015.99
2019-02-05T10:56:17.911Z,1015.94
2019-02-05T10:57:17.917Z,1015.92
2019-02-05T10:58:17.922Z,1016.01
2019-02-05T10:59:17.952Z,1015.92
2019-02-05T11:00:17.932Z,1015.93
2019-02-05T11:01:17.939Z,1015.92
2019-02-05T11:02:17.945Z,1015.97
2019-02-05T11:03:17.949Z,1015.98
2019-02-05T11:04:18.067Z,1015.96
2019-02-05T11:05:17.961Z,1015.96
2019-02-05T11:06:19.999Z,1015.89
2019-02-05T11:07:17.972Z,1015.93
2019-02-05T11:08:17.977Z,1015.89
2019-02-05T11:09:17.983Z,1015.81
2019-02-05T11:10:17.990Z,1015.92
2019-02-05T11:11:18.004Z,1015.87
2019-02-05T11:12:17.999Z,1015.89
2019-02-05T11:13:18.915Z,1015.91
2019-02-05T11:14:18.011Z,1015.84
2019-02-05T11:15:18.100Z,1015.87
2019-02-05T11:16:18.023Z,1015.95
2019-02-05T11:17:18.027Z,1015.85
2019-02-05T11:18:18.033Z,1015.97
2019-02-05T11:19:18.038Z,1015.94
2019-02-05T11:20:18.043Z,1015.82
2019-02-05T11:21:18.073Z,1015.90
2019-02-05T11:22:18.055Z,1015.86
2019-02-05T11:23:18.062Z,1015.80
2019-02-05T11:24:18.065Z,1015.83
2019-02-05T11:25:18.071Z,1015.85
2019-02-05T11:26:18.200Z,1015.89
2019-02-05T11:27:18.082Z,1015.87
2019-02-05T11:28:18.087Z,1015.83
2019-02-05T11:29:18.095Z,1015.88
2019-02-05T11:30:20.353Z,1015.85
2019-02-05T11:31:18.103Z,1015.89
2019-02-05T11:32:18.109Z,1015.81
2019-02-05T11:33:18.115Z,1015.79
2019-02-05T11:34:18.119Z,1015.86
2019-02-05T11:35:18.126Z,1015.79
2019-02-05T11:36:18.130Z,1015.83
2019-02-05T11:37:18.137Z,1015.82
2019-02-05T11:38:18.147Z,1015.80
2019-02-05T11:39:18.148Z,1015.80
2019-02-05T11:40:18.153Z,1015.81
2019-02-05T11:41:18.371Z,1015.83
2019-02-05T11:42:18.164Z,1015.90
2019-02-05T11:43:18.168Z,1015.76
2019-02-05T11:44:18.180Z,1015.75
2019-02-05T11:45:18.182Z,1015.78
2019-02-05T11:46:18.189Z,1015.76
2019-02-05T11:47:18.193Z,1015.80
2019-02-05T11:48:18.199Z,1015.73
2019-02-05T11:49:18.203Z,1015.78
2019-02-05T11:50:18.209Z,1015.78
2019-02-05T11:51:18.212Z,1015.76
2019-02-05T11:52:18.219Z,1015.76
2019-02-05T11:53:18.224Z,1015.76
2019-02-05T11:54:18.233Z,1015.72
2019-02-05T11:55:18.236Z,1015.78
2019-02-05T11:56:18.545Z,1015.74
2019-02-05T11:57:18.246Z,1015.80
2019-02-05T11:58:18.252Z,1015.80
2019-02-05T11:59:18.257Z,1015.81
2019-02-05T12:00:18.262Z,1015.72
2019-02-05T12:01:18.267Z,1015.77
2019-02-05T12:02:18.274Z,1015.72
2019-02-05T12:03:18.280Z,1015.82
2019-02-05T12:04:18.392Z,1015.72
2019-02-05T12:05:18.290Z,1015.75